EW1578 Weather Reports


Display with metric or nautical units.
time (UTC)temp
F
wind
direction
speed
MPH
gust
MPH
rain 1hr
in
rain 24hr
in
rain mn
in
humidity
%
barometer
mb
20181115023024 31 40 5.0 7.0 0.00 0.00 0.00 66 1035.3
20181115021520 31 65 1.0 6.0 0.00 0.00 0.00 67 1035.2
20181115020012 31 38 2.0 10.0 0.00 0.00 0.00 67 1034.8
20181115014510 32 46 5.0 9.0 0.00 0.00 0.00 67 1034.3
20181115013021 32 38 7.0 13.0 0.00 0.00 0.00 66 1034.1
20181115011504 32 30 5.0 8.0 0.00 0.00 0.00 63 1034.1
20181115010159 32 35 4.0 10.0 0.00 0.00 0.00 62 1033.9
20181115004645 32 23 5.0 11.0 0.00 0.00 0.00 63 1033.5
20181115003113 33 26 3.0 6.0 0.00 0.00 0.00 62 1033.4
20181115000124 33 338 4.0 7.0 0.00 0.00 0.00 61 1033.3
20181114234631 33 349 2.0 7.0 0.00 0.00 0.00 65 1033.2
20181114233129 33 355 2.0 3.0 0.00 0.00 0.00 65 1033.0
20181114231620 34 355 0.0 6.0 0.00 0.00 0.00 60 1033.0
20181114230111 34 348 3.0 5.0 0.00 0.00 0.00 59 1032.9
20181114224702 35 348 2.0 6.0 0.00 0.00 0.00 58 1032.8
20181114223103 35 350 4.0 8.0 0.00 0.00 0.00 57 1032.4
20181114221558 35 360 1.0 5.0 0.00 0.00 0.00 60 1032.6
20181114220053 35 348 1.0 5.0 0.00 0.00 0.00 58 1032.5
20181114214555 35 342 1.0 5.0 0.00 0.00 0.00 57 1032.3
20181114213111 36 340 1.0 7.0 0.00 0.00 0.00 55 1032.3
20181114211535 36 336 3.0 8.0 0.00 0.00 0.00 55 1032.1
20181114210117 36 350 3.0 9.0 0.00 0.00 0.00 54 1031.8
20181114204620 37 346 4.0 13.0 0.00 0.00 0.00 54 1032.0
20181114203051 37 340 7.0 12.0 0.00 0.00 0.00 53 1031.6
20181114201533 38 332 6.0 12.0 0.00 0.00 0.00 51 1031.5
20181114194555 39 5 9.0 13.0 0.00 0.00 0.00 50 1031.1
20181114193021 39 296 4.0 10.0 0.00 0.00 0.00 48 1031.0
20181114191526 39 355 5.0 9.0 0.00 0.00 0.00 50 1030.7
20181114190056 40 326 5.0 11.0 0.00 0.00 0.00 50 1030.6
20181114184554 40 317 3.0 9.0 0.00 0.00 0.00 49 1030.5
20181114183023 39 9 4.0 10.0 0.00 0.00 0.00 48 1030.5
20181114181532 40 277 6.0 11.0 0.00 0.00 0.00 50 1030.5
20181114180014 39 355 6.0 12.0 0.00 0.00 0.00 49 1030.4
20181114174516 39 341 7.0 15.0 0.00 0.00 0.00 48 1030.4
20181114173025 39 324 4.0 14.0 0.00 0.00 0.00 52 1030.3
20181114171543 39 338 5.0 12.0 0.00 0.00 0.00 52 1030.3
20181114170016 40 344 8.0 13.0 0.00 0.00 0.00 53 1030.3
20181114164510 40 24 7.0 12.0 0.00 0.00 0.00 53 1030.2
20181114163009 40 337 7.0 10.0 0.00 0.00 0.00 58 1030.2
20181114161508 39 287 5.0 11.0 0.00 0.00 0.00 53 1030.3
20181114160013 38 299 5.0 12.0 0.00 0.00 0.00 54 1030.6
20181114154504 38 355 5.0 12.0 0.00 0.00 0.00 54 1030.5
20181114153007 38 302 6.0 11.0 0.00 0.00 0.00 55 1030.3
20181114151502 37 323 6.0 13.0 0.00 0.00 0.00 56 1030.2
20181114150154 37 319 4.0 10.0 0.00 0.00 0.00 57 1030.1
20181114150008 36 329 4.0 10.0 0.00 0.00 0.00 57 1030.1
20181114144705 36 300 7.0 16.0 0.00 0.01 0.00 57 1029.9
20181114143132 36 304 5.0 12.0 0.00 0.01 0.00 59 1030.0
20181114141628 35 336 10.0 16.0 0.00 0.01 0.00 61 1029.6
20181114140115 35 346 9.0 15.0 0.00 0.01 0.00 60 1029.4
20181114134612 36 325 2.0 6.0 0.00 0.02 0.00 65 1029.4
20181114133118 35 313 1.0 7.0 0.00 0.02 0.00 65 1029.1
20181114131611 35 294 4.0 9.0 0.00 0.02 0.00 65 1028.9
20181114130114 35 307 5.0 12.0 0.00 0.02 0.00 65 1028.5
20181114124653 35 278 3.0 9.0 0.00 0.06 0.00 66 1028.1
20181114123112 35 311 3.0 11.0 0.00 0.06 0.00 67 1028.0
20181114121616 35 297 3.0 12.0 0.00 0.06 0.00 67 1027.9
20181114120152 35 342 1.0 6.0 0.00 0.06 0.00 68 1027.5
20181114114625 35 351 3.0 8.0 0.00 0.15 0.00 69 1027.3
20181114113044 35 297 2.0 8.0 0.00 0.15 0.00 69 1026.8
20181114111615 35 317 1.0 10.0 0.00 0.15 0.00 70 1026.8
20181114110033 35 300 0.0 6.0 0.00 0.15 0.00 72 1026.8
20181114104549 35 298 1.0 5.0 0.00 0.28 0.00 73 1026.3
20181114103041 35 286 1.0 7.0 0.00 0.28 0.00 71 1025.8
20181114101602 35 279 3.0 9.0 0.00 0.28 0.00 71 1025.8
20181114100016 35 261 3.0 7.0 0.00 0.28 0.00 71 1025.6
20181114094525 35 225 2.0 7.0 0.00 0.38 0.00 71 1025.1
20181114093010 35 251 3.0 7.0 0.00 0.38 0.00 70 1024.9
20181114091521 35 260 1.0 7.0 0.00 0.38 0.00 70 1024.5
20181114090032 35 271 1.0 11.0 0.00 0.38 0.00 70 1024.3
20181114084506 35 278 2.0 8.0 0.00 0.49 0.00 70 1024.1
20181114081722 36 265 2.0 9.0 0.00 0.49 0.00 70 1023.9
20181114080210 36 275 2.0 12.0 0.00 0.49 0.00 71 1023.8
20181114074646 36 259 4.0 8.0 0.00 0.53 0.00 72 1023.6
20181114073153 36 267 2.0 6.0 0.00 0.53 0.00 71 1023.5
20181114071654 36 306 4.0 13.0 0.00 0.53 0.00 70 1023.5
20181114070201 37 309 6.0 12.0 0.00 0.53 0.00 70 1023.2
20181114064606 37 245 5.0 13.0 0.00 0.59 0.00 70 1023.1
20181114063145 37 271 4.0 13.0 0.00 0.59 0.00 71 1022.9
20181114061606 38 276 5.0 11.0 0.00 0.59 0.00 71 1022.7
20181114060102 38 288 4.0 10.0 0.00 0.59 0.00 71 1022.6
20181114054624 39 311 6.0 12.0 0.00 0.64 0.00 72 1022.5
20181114053056 39 266 3.0 11.0 0.00 0.64 0.00 72 1022.3
20181114051610 39 240 5.0 12.0 0.00 0.64 0.00 71 1021.9
20181114050101 39 271 5.0 9.0 0.00 0.64 0.00 72 1022.0
20181114044537 39 261 3.0 10.0 0.00 0.72 0.00 72 1022.0
20181114043029 40 287 4.0 11.0 0.00 0.72 0.00 72 1021.7
20181114041527 40 290 4.0 9.0 0.00 0.72 0.00 72 1021.7
20181114040117 40 279 3.0 12.0 0.00 0.72 0.00 72 1021.4
20181114034542 40 257 2.0 10.0 0.00 0.77 0.72 72 1021.4
20181114033051 40 267 6.0 11.0 0.00 0.77 0.72 72 1021.1
20181114031531 40 293 6.0 15.0 0.00 0.77 0.72 71 1021.0
20181114030040 40 306 5.0 12.0 0.00 0.77 0.72 75 1020.9
20181114024511 40 285 3.0 9.0 0.00 0.78 0.72 77 1020.6